createdAt,value
2022-11-28T00:01:30.911Z,95898.25
2022-11-28T00:04:00.329Z,95897.44
2022-11-28T00:06:28.425Z,95893.19
2022-11-28T00:08:59.272Z,95897.44
2022-11-28T00:11:27.301Z,95895.81
2022-11-28T00:13:55.535Z,95902.50
2022-11-28T00:16:24.828Z,95909.22
2022-11-28T00:18:56.137Z,95929.66
2022-11-28T00:21:25.558Z,95918.69
2022-11-28T00:23:54.289Z,95916.06
2022-11-28T00:26:25.466Z,95907.56
2022-11-28T00:28:54.029Z,95906.75
2022-11-28T00:31:23.861Z,95897.09
2022-11-28T00:33:52.354Z,95892.19
2022-11-28T00:36:21.027Z,95867.69
2022-11-28T00:38:50.632Z,95863.44
2022-11-28T00:41:21.033Z,95862.78
2022-11-28T00:43:50.075Z,95847.41
2022-11-28T00:46:19.377Z,95844.78
2022-11-28T00:48:47.580Z,95848.03
2022-11-28T00:51:17.495Z,95845.59
2022-11-28T00:53:47.997Z,95844.13
2022-11-28T00:56:22.919Z,95823.03
2022-11-28T00:58:51.684Z,95835.47
2022-11-28T01:01:21.854Z,95836.28
2022-11-28T01:03:51.976Z,95832.69
2022-11-28T01:06:24.286Z,95834.66
2022-11-28T01:08:52.908Z,95831.22
2022-11-28T01:11:22.935Z,95826.16
2022-11-28T01:13:50.842Z,95824.50
2022-11-28T01:16:18.887Z,95819.63
2022-11-28T01:18:46.944Z,95815.03
2022-11-28T01:21:15.168Z,95818.63
2022-11-28T01:23:45.338Z,95821.25
2022-11-28T01:26:19.256Z,95821.91
2022-11-28T01:28:49.044Z,95827.78
2022-11-28T01:31:18.958Z,95835.47
2022-11-28T01:33:46.954Z,95821.09
2022-11-28T01:36:15.758Z,95809.16
2022-11-28T01:38:43.976Z,95802.63
2022-11-28T01:41:12.130Z,95798.22
2022-11-28T01:44:00.141Z,95782.03
2022-11-28T01:46:28.287Z,95780.41
2022-11-28T01:48:59.476Z,95779.75
2022-11-28T01:51:27.992Z,95792.50
2022-11-28T01:53:57.072Z,95794.94
2022-11-28T01:56:28.442Z,95798.22
2022-11-28T01:59:01.019Z,95800.00
2022-11-28T02:01:29.273Z,95795.75
2022-11-28T02:03:59.792Z,95798.22
2022-11-28T02:06:28.815Z,95805.06
2022-11-28T02:08:57.173Z,95802.28
2022-11-28T02:11:48.326Z,95809.31
2022-11-28T02:14:26.927Z,95807.69
2022-11-28T02:17:08.700Z,95802.63
2022-11-28T02:20:16.950Z,95807.53
2022-11-28T02:22:57.409Z,95804.09
2022-11-28T02:25:54.786Z,95817.97
2022-11-28T02:28:58.184Z,95811.94
2022-11-28T02:31:44.745Z,95797.38
2022-11-28T02:34:20.766Z,95793.31
2022-11-28T02:36:52.593Z,95781.38
2022-11-28T02:39:32.753Z,95773.53
2022-11-28T02:42:13.507Z,95777.13
2022-11-28T02:44:46.450Z,95779.75
2022-11-28T02:47:23.971Z,95765.03
2022-11-28T02:49:59.530Z,95778.75
2022-11-28T02:52:32.099Z,95779.59
2022-11-28T02:55:00.994Z,95771.09
2022-11-28T02:57:35.971Z,95761.94
2022-11-28T03:00:23.842Z,95769.47
2022-11-28T03:03:01.564Z,95768.63
2022-11-28T03:05:41.717Z,95813.72
2022-11-28T03:08:33.128Z,95794.94
2022-11-28T03:11:09.336Z,95782.03
2022-11-28T03:13:42.770Z,95770.28
2022-11-28T03:16:18.867Z,95788.91
2022-11-28T03:18:54.201Z,95785.63
2022-11-28T03:21:33.892Z,95786.63
2022-11-28T03:24:07.499Z,95788.09
2022-11-28T03:26:40.950Z,95790.69
2022-11-28T03:29:14.440Z,95779.59
2022-11-28T03:31:46.122Z,95778.75
2022-11-28T03:34:21.149Z,95783.34
2022-11-28T03:36:55.134Z,95804.25
2022-11-28T03:39:29.075Z,95791.50
2022-11-28T03:42:00.982Z,95792.16
2022-11-28T03:44:33.214Z,95794.94
2022-11-28T03:47:03.604Z,95787.25
2022-11-28T03:49:34.690Z,95789.88
2022-11-28T03:52:05.697Z,95781.38
2022-11-28T03:54:37.594Z,95790.03
2022-11-28T03:57:11.523Z,95783.19
2022-11-28T03:59:44.824Z,95783.00
2022-11-28T04:02:19.683Z,95791.69
2022-11-28T04:04:55.615Z,95793.31
2022-11-28T04:07:33.096Z,95799.34
2022-11-28T04:10:06.195Z,95795.75
2022-11-28T04:12:46.131Z,95805.25
2022-11-28T04:15:22.267Z,95791.69
2022-11-28T04:17:56.747Z,95803.44
2022-11-28T04:20:34.343Z,95798.41
2022-11-28T04:23:09.294Z,95817.00
2022-11-28T04:25:40.872Z,95824.69
2022-11-28T04:28:12.996Z,95819.63
2022-11-28T04:30:44.145Z,95825.66
2022-11-28T04:33:14.714Z,95833.19
2022-11-28T04:35:45.551Z,95841.50
2022-11-28T04:38:15.857Z,95848.38
2022-11-28T04:40:48.367Z,95842.66
2022-11-28T04:43:21.936Z,95856.88
2022-11-28T04:45:54.963Z,95868.03
2022-11-28T04:48:23.263Z,95863.75
2022-11-28T04:50:59.151Z,95860.31
2022-11-28T04:53:34.619Z,95872.28
2022-11-28T04:56:07.702Z,95853.28
2022-11-28T04:58:39.445Z,95869.31
2022-11-28T05:01:11.510Z,95894.34
2022-11-28T05:03:42.825Z,95887.31
2022-11-28T05:06:11.983Z,95900.22
2022-11-28T05:08:42.287Z,95896.63
2022-11-28T05:11:10.330Z,95909.53
2022-11-28T05:13:38.265Z,95910.34
2022-11-28T05:16:06.931Z,95917.38
2022-11-28T05:18:34.875Z,95919.69
2022-11-28T05:21:03.129Z,95925.72
2022-11-28T05:23:30.932Z,95925.56
2022-11-28T05:26:00.080Z,95917.72
2022-11-28T05:28:28.180Z,95930.78
2022-11-28T05:30:59.120Z,95910.84
2022-11-28T05:33:26.935Z,95936.69
2022-11-28T05:35:54.717Z,95936.69
2022-11-28T05:38:22.699Z,95937.50
2022-11-28T05:40:50.714Z,95945.19
2022-11-28T05:43:21.088Z,95947.81
2022-11-28T05:45:49.072Z,95953.69
2022-11-28T05:48:16.956Z,95979.06
2022-11-28T05:50:44.933Z,95971.34
2022-11-28T05:53:13.465Z,95980.88
2022-11-28T05:55:41.845Z,95989.38
2022-11-28T05:58:10.134Z,95990.19
2022-11-28T06:00:39.698Z,96002.94
2022-11-28T06:03:08.251Z,96009.66
2022-11-28T06:05:43.536Z,96023.41
2022-11-28T06:08:12.753Z,96014.41
2022-11-28T06:10:40.679Z,96030.94
2022-11-28T06:13:08.486Z,96043.69
2022-11-28T06:15:38.504Z,96035.50
2022-11-28T06:18:08.300Z,96072.47
2022-11-28T06:20:36.592Z,96093.94
2022-11-28T06:23:04.443Z,96106.56
2022-11-28T06:25:32.556Z,96147.47
2022-11-28T06:28:00.404Z,96171.38
2022-11-28T06:30:28.265Z,96196.94
2022-11-28T06:32:56.088Z,96213.00
2022-11-28T06:35:25.523Z,96219.72
2022-11-28T06:37:53.435Z,96244.47
2022-11-28T06:40:23.520Z,96250.38
2022-11-28T06:42:51.616Z,96252.97
2022-11-28T06:45:19.591Z,96271.66
2022-11-28T06:47:48.141Z,96274.13
2022-11-28T06:50:18.551Z,96270.03
2022-11-28T06:52:47.721Z,96258.88
2022-11-28T06:55:15.756Z,96252.00
2022-11-28T06:57:43.898Z,96257.25
2022-11-28T07:00:12.798Z,96262.31
2022-11-28T07:02:40.709Z,96252.97
2022-11-28T07:05:09.385Z,96249.88
2022-11-28T07:07:50.257Z,96256.59
2022-11-28T07:10:24.767Z,96248.72
2022-11-28T07:12:55.618Z,96252.97
2022-11-28T07:15:24.039Z,96265.75
2022-11-28T07:17:52.236Z,96266.75
2022-11-28T07:20:20.669Z,96261.50
2022-11-28T07:22:49.465Z,96268.38
2022-11-28T07:25:17.964Z,96265.94
2022-11-28T07:27:47.093Z,96247.91
2022-11-28T07:30:15.780Z,96237.75
2022-11-28T07:32:43.620Z,96252.31
2022-11-28T07:35:12.220Z,96246.44
2022-11-28T07:37:41.943Z,96280.34
2022-11-28T07:40:10.067Z,96271.81
2022-11-28T07:42:38.042Z,96276.91
2022-11-28T07:45:08.196Z,96272.63
2022-11-28T07:47:36.072Z,96292.31
2022-11-28T07:50:04.409Z,96289.53
2022-11-28T07:52:32.177Z,96308.53
2022-11-28T07:54:59.962Z,96344.13
2022-11-28T07:57:28.009Z,96339.88
2022-11-28T07:59:56.134Z,96368.06
2022-11-28T08:02:26.054Z,96374.94
2022-11-28T08:04:55.382Z,96387.41
2022-11-28T08:07:23.560Z,96409.69
2022-11-28T08:09:51.664Z,96419.88
2022-11-28T08:12:19.539Z,96415.59
2022-11-28T08:14:47.541Z,96403.78
2022-11-28T08:17:15.341Z,96412.47
2022-11-28T08:19:44.746Z,96414.63
2022-11-28T08:22:12.527Z,96405.59
2022-11-28T08:24:41.274Z,96412.97
2022-11-28T08:27:09.500Z,96416.44
2022-11-28T08:29:37.268Z,96423.47
2022-11-28T08:32:05.379Z,96423.47
2022-11-28T08:34:33.168Z,96421.50
2022-11-28T08:37:02.327Z,96448.94
2022-11-28T08:39:30.282Z,96459.25
2022-11-28T08:41:58.964Z,96468.44
2022-11-28T08:44:30.411Z,96474.34
2022-11-28T08:46:58.544Z,96493.22
2022-11-28T08:49:26.338Z,96490.59
2022-11-28T08:51:54.192Z,96506.00
2022-11-28T08:54:23.604Z,96532.59
2022-11-28T08:56:51.501Z,96537.34
2022-11-28T08:59:19.236Z,96564.94
2022-11-28T09:01:47.147Z,96569.88
2022-11-28T09:04:15.354Z,96581.03
2022-11-28T09:06:43.304Z,96590.91
2022-11-28T09:09:11.279Z,96569.81
2022-11-28T09:11:40.562Z,96641.47
2022-11-28T09:14:08.613Z,96646.53
2022-11-28T09:16:36.579Z,96653.44
2022-11-28T09:19:05.141Z,96652.78
2022-11-28T09:21:33.198Z,96675.66
2022-11-28T09:24:01.022Z,96661.16
2022-11-28T09:26:29.937Z,96660.19
2022-11-28T09:28:59.180Z,96677.28
2022-11-28T09:31:27.204Z,96689.13
2022-11-28T09:33:55.736Z,96680.88
2022-11-28T09:36:24.929Z,96679.91
2022-11-28T09:38:53.093Z,96626.97
2022-11-28T09:41:51.433Z,96617.81
2022-11-28T09:44:24.840Z,96611.06
2022-11-28T09:46:55.896Z,96566.38
2022-11-28T09:49:36.759Z,96560.53
2022-11-28T09:52:17.429Z,96545.38
2022-11-28T09:54:52.606Z,96529.97
2022-11-28T09:57:28.693Z,96515.38
2022-11-28T09:59:57.938Z,96520.63
2022-11-28T10:02:33.873Z,96509.47
2022-11-28T10:05:12.106Z,96507.97
2022-11-28T10:07:55.150Z,96483.84
2022-11-28T10:10:33.064Z,96510.44
2022-11-28T10:13:09.690Z,96508.78
2022-11-28T10:15:47.066Z,96498.47
2022-11-28T10:18:35.262Z,96511.41
2022-11-28T10:21:10.381Z,96507.97
2022-11-28T10:23:43.481Z,96501.25
2022-11-28T10:26:19.344Z,96496.97
2022-11-28T10:28:51.108Z,96498.63
2022-11-28T10:31:29.418Z,96494.50
2022-11-28T10:34:03.864Z,96493.38
2022-11-28T10:36:38.864Z,96508.78
2022-11-28T10:39:12.401Z,96511.41
2022-11-28T10:42:07.157Z,96507.16
2022-11-28T10:44:45.810Z,96501.91
2022-11-28T10:47:22.653Z,96508.78
2022-11-28T10:50:00.878Z,96501.91
2022-11-28T10:52:38.171Z,96495.66
2022-11-28T10:55:21.689Z,96496.00
2022-11-28T10:57:57.399Z,96494.34
2022-11-28T11:00:25.936Z,96507.97
2022-11-28T11:02:56.703Z,96518.47
2022-11-28T11:05:28.044Z,96528.31
2022-11-28T11:07:58.631Z,96549.81
2022-11-28T11:10:31.568Z,96581.53
2022-11-28T11:12:59.555Z,96634.88
2022-11-28T11:15:32.521Z,96651.13
2022-11-28T11:18:05.634Z,96695.50
2022-11-28T11:20:39.585Z,96710.78
2022-11-28T11:23:17.520Z,96704.03
2022-11-28T11:25:52.912Z,96732.13
2022-11-28T11:28:42.554Z,96700.75
2022-11-28T11:31:21.610Z,96725.56
2022-11-28T11:33:54.188Z,96756.28
2022-11-28T11:36:25.540Z,96753.66
2022-11-28T11:39:05.159Z,96730.50
2022-11-28T11:41:33.555Z,96701.56
2022-11-28T11:44:29.751Z,96703.88
2022-11-28T11:46:58.819Z,96693.88
2022-11-28T11:49:33.051Z,96737.38
2022-11-28T11:52:04.864Z,96739.03
2022-11-28T11:54:33.007Z,96758.09
2022-11-28T11:57:30.531Z,96761.53
2022-11-28T11:59:54.290Z,96781.91
2022-11-28T12:02:29.070Z,96771.56
2022-11-28T12:05:04.932Z,96761.88
2022-11-28T12:07:39.560Z,96763.03
2022-11-28T12:10:14.075Z,96753.66
2022-11-28T12:12:42.360Z,96728.84
2022-11-28T12:15:18.362Z,96739.03
2022-11-28T12:20:56.293Z,96711.75
2022-11-28T12:23:41.784Z,96725.41
2022-11-28T12:26:20.012Z,96701.34
2022-11-28T12:29:01.618Z,96719.47
2022-11-28T12:31:41.717Z,96718.66
2022-11-28T12:34:21.921Z,96700.75
2022-11-28T12:37:04.025Z,96680.19
2022-11-28T12:39:44.027Z,96679.25
2022-11-28T12:42:24.870Z,96672.97
2022-11-28T12:45:08.386Z,96680.50
2022-11-28T12:47:45.499Z,96667.38
2022-11-28T12:50:23.522Z,96681.19
2022-11-28T12:53:04.750Z,96669.34
2022-11-28T12:55:39.922Z,96647.03
2022-11-28T12:58:15.577Z,96631.59
2022-11-28T13:00:52.002Z,96603.53
2022-11-28T13:03:34.393Z,96587.25
2022-11-28T13:06:18.125Z,96560.81
2022-11-28T13:09:20.225Z,96544.06
2022-11-28T13:11:58.175Z,96525.34
2022-11-28T13:14:37.684Z,96507.47
2022-11-28T13:17:17.354Z,96482.03
2022-11-28T13:19:53.211Z,96468.09
2022-11-28T13:22:24.699Z,96471.38
2022-11-28T13:25:03.627Z,96453.63
2022-11-28T13:27:38.653Z,96454.63
2022-11-28T13:30:22.241Z,96443.47
2022-11-28T13:33:00.585Z,96442.66
2022-11-28T13:35:30.425Z,96461.22
2022-11-28T13:41:04.595Z,96468.72
2022-11-28T13:43:46.575Z,96449.38
2022-11-28T13:46:15.629Z,96439.84
2022-11-28T13:49:20.250Z,96433.97
2022-11-28T13:51:49.024Z,96426.41
2022-11-28T13:54:48.717Z,96438.56
2022-11-28T13:57:28.941Z,96436.75
2022-11-28T14:00:07.487Z,96429.03
2022-11-28T14:02:45.554Z,96425.75
2022-11-28T14:05:26.952Z,96421.34
2022-11-28T14:07:56.355Z,96456.25
2022-11-28T14:10:38.931Z,96439.22
2022-11-28T14:13:28.478Z,96457.91
2022-11-28T14:16:08.123Z,96489.28
2022-11-28T14:18:57.130Z,96497.97
2022-11-28T14:21:35.029Z,96522.56
2022-11-28T14:24:13.222Z,96516.66
2022-11-28T14:26:43.107Z,96526.19
2022-11-28T14:29:22.390Z,96510.75
2022-11-28T14:32:21.681Z,96496.97
2022-11-28T14:34:47.489Z,96502.22
2022-11-28T14:37:57.628Z,96527.16
2022-11-28T14:41:04.111Z,96495.34
2022-11-28T14:43:33.921Z,96518.31
2022-11-28T14:46:34.320Z,96492.06
2022-11-28T14:49:23.089Z,96473.34
2022-11-28T14:52:38.394Z,96465.47
2022-11-28T14:55:18.885Z,96466.47
2022-11-28T14:57:56.880Z,96492.72
2022-11-28T15:00:26.736Z,96470.56
2022-11-28T15:03:27.133Z,96459.72
2022-11-28T15:06:02.343Z,96459.41
2022-11-28T15:08:50.023Z,96490.41
2022-11-28T15:11:28.131Z,96485.31
2022-11-28T15:14:10.693Z,96471.38
2022-11-28T15:16:49.919Z,96469.09
2022-11-28T15:19:26.974Z,96456.59
2022-11-28T15:21:57.228Z,96457.91
2022-11-28T15:24:27.329Z,96451.03
2022-11-28T15:26:57.775Z,96458.22
2022-11-28T15:29:28.339Z,96463.16
2022-11-28T15:32:01.381Z,96439.22
2022-11-28T15:34:31.432Z,96449.53
2022-11-28T15:37:03.697Z,96474.00
2022-11-28T15:39:35.086Z,96451.19
2022-11-28T15:42:05.888Z,96442.50
2022-11-28T15:44:34.149Z,96440.84
2022-11-28T15:47:02.158Z,96431.34
2022-11-28T15:49:32.429Z,96427.06
2022-11-28T15:52:04.120Z,96426.41
2022-11-28T15:54:39.176Z,96421.34
2022-11-28T15:57:07.938Z,96394.94
2022-11-28T15:59:36.543Z,96401.16
2022-11-28T16:02:14.009Z,96402.63
2022-11-28T16:04:43.434Z,96397.72
2022-11-28T16:07:16.444Z,96375.59
2022-11-28T16:09:57.173Z,96377.88
2022-11-28T16:12:26.852Z,96364.44
2022-11-28T16:15:01.420Z,96383.13
2022-11-28T16:17:32.583Z,96380.50
2022-11-28T16:20:03.700Z,96370.34
2022-11-28T16:22:37.481Z,96372.97
2022-11-28T16:25:14.973Z,96378.03
2022-11-28T16:27:45.685Z,96372.97
2022-11-28T16:30:30.175Z,96360.03
2022-11-28T16:32:58.928Z,96362.81
2022-11-28T16:35:28.824Z,96357.56
2022-11-28T16:38:07.229Z,96361.66
2022-11-28T16:40:35.260Z,96355.91
2022-11-28T16:43:05.177Z,96352.94
2022-11-28T16:45:35.023Z,96384.94
2022-11-28T16:48:09.484Z,96357.56
2022-11-28T16:50:38.463Z,96335.25
2022-11-28T16:53:07.636Z,96340.47
2022-11-28T16:55:44.356Z,96357.22
2022-11-28T16:58:17.837Z,96364.44
2022-11-28T17:00:51.877Z,96359.19
2022-11-28T17:03:46.218Z,96342.13
2022-11-28T17:06:21.546Z,96343.75
2022-11-28T17:08:50.903Z,96336.06
2022-11-28T17:11:21.889Z,96348.34
2022-11-28T17:13:49.753Z,96340.19
2022-11-28T17:16:21.890Z,96334.41
2022-11-28T17:18:50.458Z,96335.56
2022-11-28T17:21:22.215Z,96314.91
2022-11-28T17:23:51.402Z,96308.03
2022-11-28T17:26:19.269Z,96314.25
2022-11-28T17:28:47.084Z,96306.38
2022-11-28T17:31:15.147Z,96308.03
2022-11-28T17:33:44.942Z,96306.38
2022-11-28T17:36:13.421Z,96313.28
2022-11-28T17:38:41.321Z,96304.75
2022-11-28T17:41:15.188Z,96286.06
2022-11-28T17:43:43.363Z,96285.25
2022-11-28T17:46:11.514Z,96290.34
2022-11-28T17:48:39.546Z,96268.72
2022-11-28T17:51:07.370Z,96280.84
2022-11-28T17:53:35.244Z,96281.97
2022-11-28T17:56:03.266Z,96277.38
2022-11-28T17:58:32.978Z,96273.13
2022-11-28T18:01:01.278Z,96271.66
2022-11-28T18:03:29.916Z,96280.84
2022-11-28T18:05:57.884Z,96281.81
2022-11-28T18:08:25.740Z,96291.31
2022-11-28T18:11:04.324Z,96286.06
2022-11-28T18:13:34.076Z,96258.50
2022-11-28T18:16:02.127Z,96274.28
2022-11-28T18:18:30.455Z,96263.28
2022-11-28T18:20:58.670Z,96257.25
2022-11-28T18:23:27.887Z,96255.59
2022-11-28T18:25:55.803Z,96257.25
2022-11-28T18:28:23.755Z,96231.00
2022-11-28T18:30:53.358Z,96241.97
2022-11-28T18:33:21.243Z,96259.84
2022-11-28T18:35:49.712Z,96246.09
2022-11-28T18:38:17.531Z,96243.47
2022-11-28T18:40:46.953Z,96241.84
2022-11-28T18:43:15.026Z,96240.16
2022-11-28T18:45:42.980Z,96234.94
2022-11-28T18:48:12.908Z,96241.03
2022-11-28T18:50:40.769Z,96246.09
2022-11-28T18:53:08.621Z,96233.28
2022-11-28T18:55:36.541Z,96236.72
2022-11-28T18:58:04.372Z,96242.78
2022-11-28T19:00:32.188Z,96250.34
2022-11-28T19:03:00.241Z,96245.13
2022-11-28T19:05:32.788Z,96238.25
2022-11-28T19:08:03.106Z,96234.94
2022-11-28T19:10:30.985Z,96233.28
2022-11-28T19:13:00.931Z,96242.66
2022-11-28T19:15:28.695Z,96241.84
2022-11-28T19:18:03.888Z,96245.28
2022-11-28T19:20:34.263Z,96236.91
2022-11-28T19:23:02.725Z,96229.84
2022-11-28T19:25:32.501Z,96231.66
2022-11-28T19:28:00.445Z,96228.22
2022-11-28T19:30:28.373Z,96231.66
2022-11-28T19:32:57.271Z,96229.19
2022-11-28T19:35:26.340Z,96224.94
2022-11-28T19:37:56.470Z,96221.50
2022-11-28T19:40:24.609Z,96221.50
2022-11-28T19:42:52.628Z,96215.44
2022-11-28T19:45:20.704Z,96221.50
2022-11-28T19:47:48.664Z,96214.47
2022-11-28T19:50:17.430Z,96220.69
2022-11-28T19:52:45.607Z,96207.75
2022-11-28T19:55:14.820Z,96193.16
2022-11-28T19:57:43.913Z,96199.06
2022-11-28T20:00:13.773Z,96200.88
2022-11-28T20:02:41.744Z,96196.44
2022-11-28T20:05:10.680Z,96194.81
2022-11-28T20:07:38.587Z,96196.59
2022-11-28T20:10:07.800Z,96199.22
2022-11-28T20:12:37.097Z,96199.22
2022-11-28T20:15:05.765Z,96195.78
2022-11-28T20:17:33.550Z,96193.97
2022-11-28T20:20:01.334Z,96191.38
2022-11-28T20:22:29.145Z,96194.97
2022-11-28T20:24:56.990Z,96182.03
2022-11-28T20:27:25.063Z,96186.28
2022-11-28T20:29:54.541Z,96187.09
2022-11-28T20:32:22.746Z,96191.38
2022-11-28T20:34:50.605Z,96203.66
2022-11-28T20:37:18.446Z,96200.88
2022-11-28T20:39:46.844Z,96192.34
2022-11-28T20:42:14.887Z,96190.72
2022-11-28T20:44:42.745Z,96192.34
2022-11-28T20:47:12.063Z,96191.38
2022-11-28T20:49:39.948Z,96214.78
2022-11-28T20:52:07.833Z,96200.03
2022-11-28T20:54:37.780Z,96207.41
2022-11-28T20:57:20.972Z,96216.25
2022-11-28T20:59:49.504Z,96244.47
2022-11-28T21:02:18.720Z,96219.53
2022-11-28T21:04:46.697Z,96222.97
2022-11-28T21:07:14.613Z,96251.19
2022-11-28T21:09:43.135Z,96254.47
2022-11-28T21:12:11.286Z,96250.34
2022-11-28T21:14:39.122Z,96244.28
2022-11-28T21:17:06.921Z,96260.50
2022-11-28T21:19:36.138Z,96274.78
2022-11-28T21:22:04.023Z,96300.50
2022-11-28T21:24:31.900Z,96313.28
2022-11-28T21:26:59.684Z,96333.59
2022-11-28T21:29:27.589Z,96349.00
2022-11-28T21:31:55.650Z,96382.81
2022-11-28T21:34:23.681Z,96399.19
2022-11-28T21:36:54.567Z,96424.47
2022-11-28T21:39:22.957Z,96440.84
2022-11-28T21:41:51.972Z,96440.84
2022-11-28T21:44:20.184Z,96449.69
2022-11-28T21:46:47.981Z,96430.34
2022-11-28T21:49:15.842Z,96464.81
2022-11-28T21:51:43.701Z,96440.50
2022-11-28T21:54:13.398Z,96470.72
2022-11-28T21:56:41.886Z,96497.97
2022-11-28T21:59:10.349Z,96489.09
2022-11-28T22:01:38.356Z,96508.13
2022-11-28T22:04:07.186Z,96499.59
2022-11-28T22:06:35.109Z,96496.97
2022-11-28T22:09:09.201Z,96503.88
2022-11-28T22:11:39.343Z,96486.16
2022-11-28T22:14:07.675Z,96471.19
2022-11-28T22:16:35.996Z,96517.00
2022-11-28T22:19:04.269Z,96505.66
2022-11-28T22:24:21.031Z,96525.84
2022-11-28T22:26:50.516Z,96520.78
2022-11-28T22:29:18.338Z,96534.72
2022-11-28T22:31:46.191Z,96554.91
2022-11-28T22:34:15.412Z,96538.00
2022-11-28T22:36:43.246Z,96524.38
2022-11-28T22:39:11.644Z,96512.41
2022-11-28T22:41:39.859Z,96505.84
2022-11-28T22:44:09.078Z,96491.22
2022-11-28T22:46:37.354Z,96473.19
2022-11-28T22:49:06.872Z,96463.16
2022-11-28T22:51:35.044Z,96444.94
2022-11-28T22:54:03.362Z,96440.19
2022-11-28T22:56:32.800Z,96451.03
2022-11-28T22:59:01.678Z,96454.63
2022-11-28T23:01:33.068Z,96440.84
2022-11-28T23:04:01.574Z,96432.31
2022-11-28T23:06:31.583Z,96438.56
2022-11-28T23:09:01.272Z,96424.13
2022-11-28T23:11:32.642Z,96422.16
2022-11-28T23:14:01.892Z,96450.53
2022-11-28T23:16:32.716Z,96422.31
2022-11-28T23:19:02.910Z,96433.31
2022-11-28T23:21:32.551Z,96426.25
2022-11-28T23:24:00.513Z,96430.69
2022-11-28T23:26:30.691Z,96411.97
2022-11-28T23:29:00.645Z,96404.44
2022-11-28T23:31:31.547Z,96389.03
2022-11-28T23:34:00.256Z,96384.78
2022-11-28T23:36:30.468Z,96379.53
2022-11-28T23:39:00.341Z,96392.47
2022-11-28T23:41:30.086Z,96382.16
2022-11-28T23:43:58.766Z,96391.34
2022-11-28T23:46:28.089Z,96416.41
2022-11-28T23:48:57.604Z,96380.50
2022-11-28T23:51:27.202Z,96369.34
2022-11-28T23:53:55.514Z,96377.22
2022-11-28T23:56:25.680Z,96389.03
2022-11-28T23:58:55.902Z,96368.03
